sensor_id;sensor_type;location;lat;lon;timestamp;pressure;altitude;pressure_sealevel;temperature;humidity
68141;BME280;54941;52.220;104.306;2022-07-29T00:02:14;95182.09;;;22.75;51.08
68141;BME280;54941;52.220;104.306;2022-07-29T00:04:41;95178.16;;;23.24;49.68
68141;BME280;54941;52.220;104.306;2022-07-29T00:07:07;95186.91;;;23.37;49.46
68141;BME280;54941;52.220;104.306;2022-07-29T00:09:33;95181.72;;;23.19;50.90
68141;BME280;54941;52.220;104.306;2022-07-29T00:12:00;95174.91;;;23.10;49.93
68141;BME280;54941;52.220;104.306;2022-07-29T00:14:27;95183.97;;;23.38;50.24
68141;BME280;54941;52.220;104.306;2022-07-29T00:16:54;95177.88;;;23.93;48.83
68141;BME280;54941;52.220;104.306;2022-07-29T00:19:22;95177.31;;;24.99;46.15
68141;BME280;54941;52.220;104.306;2022-07-29T00:21:48;95183.56;;;24.03;47.09
68141;BME280;54941;52.220;104.306;2022-07-29T00:24:14;95177.75;;;23.51;49.05
68141;BME280;54941;52.220;104.306;2022-07-29T00:26:41;95178.88;;;21.87;53.61
68141;BME280;54941;52.220;104.306;2022-07-29T00:29:07;95181.97;;;21.50;54.82
68141;BME280;54941;52.220;104.306;2022-07-29T00:31:33;95183.47;;;21.11;55.83
68141;BME280;54941;52.220;104.306;2022-07-29T00:33:59;95176.91;;;21.00;56.28
68141;BME280;54941;52.220;104.306;2022-07-29T00:36:25;95179.19;;;21.15;56.31
68141;BME280;54941;52.220;104.306;2022-07-29T00:38:51;95181.06;;;21.23;56.59
68141;BME280;54941;52.220;104.306;2022-07-29T00:41:18;95184.25;;;21.82;55.12
68141;BME280;54941;52.220;104.306;2022-07-29T00:43:45;95182.69;;;22.80;52.27
68141;BME280;54941;52.220;104.306;2022-07-29T00:46:11;95178.50;;;23.60;50.00
68141;BME280;54941;52.220;104.306;2022-07-29T00:48:38;95185.06;;;24.42;47.60
68141;BME280;54941;52.220;104.306;2022-07-29T00:51:05;95183.88;;;24.72;46.57
68141;BME280;54941;52.220;104.306;2022-07-29T00:53:32;95181.44;;;24.88;46.46
68141;BME280;54941;52.220;104.306;2022-07-29T00:55:58;95173.38;;;25.05;45.75
68141;BME280;54941;52.220;104.306;2022-07-29T00:58:26;95185.34;;;25.48;43.68
68141;BME280;54941;52.220;104.306;2022-07-29T01:00:53;95180.75;;;25.69;44.27
68141;BME280;54941;52.220;104.306;2022-07-29T01:03:19;95175.53;;;25.36;44.51
68141;BME280;54941;52.220;104.306;2022-07-29T01:05:45;95179.19;;;26.41;42.84
68141;BME280;54941;52.220;104.306;2022-07-29T01:08:14;95184.28;;;26.34;42.24
68141;BME280;54941;52.220;104.306;2022-07-29T01:10:41;95181.50;;;25.45;44.39
68141;BME280;54941;52.220;104.306;2022-07-29T01:13:10;95182.63;;;25.56;44.46
68141;BME280;54941;52.220;104.306;2022-07-29T01:15:43;95181.75;;;25.77;43.29
68141;BME280;54941;52.220;104.306;2022-07-29T01:29:28;95161.88;;;27.42;38.80
68141;BME280;54941;52.220;104.306;2022-07-29T01:32:03;95160.00;;;27.43;37.70
68141;BME280;54941;52.220;104.306;2022-07-29T01:34:42;95157.88;;;28.11;37.38
68141;BME280;54941;52.220;104.306;2022-07-29T01:37:50;95151.03;;;28.45;37.24
68141;BME280;54941;52.220;104.306;2022-07-29T01:40:23;95162.09;;;28.31;37.17
68141;BME280;54941;52.220;104.306;2022-07-29T01:42:53;95156.78;;;27.96;37.32
68141;BME280;54941;52.220;104.306;2022-07-29T01:45:28;95165.13;;;27.36;38.87
68141;BME280;54941;52.220;104.306;2022-07-29T01:50:50;95161.47;;;27.40;39.58
68141;BME280;54941;52.220;104.306;2022-07-29T01:53:33;95154.63;;;28.18;37.29
68141;BME280;54941;52.220;104.306;2022-07-29T01:56:01;95155.50;;;28.79;37.12
68141;BME280;54941;52.220;104.306;2022-07-29T01:58:31;95155.41;;;27.40;39.83
68141;BME280;54941;52.220;104.306;2022-07-29T02:00:58;95159.72;;;27.60;38.80
68141;BME280;54941;52.220;104.306;2022-07-29T02:03:26;95157.94;;;27.99;39.28
68141;BME280;54941;52.220;104.306;2022-07-29T02:05:55;95156.41;;;27.98;37.68
68141;BME280;54941;52.220;104.306;2022-07-29T02:08:23;95155.22;;;27.17;38.91
68141;BME280;54941;52.220;104.306;2022-07-29T02:10:51;95158.94;;;27.75;38.04
68141;BME280;54941;52.220;104.306;2022-07-29T02:13:20;95151.41;;;27.62;39.03
68141;BME280;54941;52.220;104.306;2022-07-29T02:15:48;95146.19;;;28.50;37.19
68141;BME280;54941;52.220;104.306;2022-07-29T02:18:18;95158.16;;;29.63;34.00
68141;BME280;54941;52.220;104.306;2022-07-29T02:20:51;95155.66;;;29.74;33.77
68141;BME280;54941;52.220;104.306;2022-07-29T02:23:21;95137.84;;;29.29;34.83
68141;BME280;54941;52.220;104.306;2022-07-29T02:25:52;95142.53;;;28.93;34.93
68141;BME280;54941;52.220;104.306;2022-07-29T02:28:20;95128.28;;;27.58;37.86
68141;BME280;54941;52.220;104.306;2022-07-29T02:30:48;95135.59;;;27.81;37.63
68141;BME280;54941;52.220;104.306;2022-07-29T02:33:18;95131.22;;;27.88;37.25
68141;BME280;54941;52.220;104.306;2022-07-29T02:35:46;95130.75;;;26.64;39.91
68141;BME280;54941;52.220;104.306;2022-07-29T02:38:15;95129.53;;;27.18;38.48
68141;BME280;54941;52.220;104.306;2022-07-29T02:40:42;95119.28;;;26.45;41.02
68141;BME280;54941;52.220;104.306;2022-07-29T02:43:10;95127.53;;;26.71;39.53
68141;BME280;54941;52.220;104.306;2022-07-29T02:45:36;95117.31;;;27.13;38.82
68141;BME280;54941;52.220;104.306;2022-07-29T02:48:10;95113.22;;;27.16;39.29
68141;BME280;54941;52.220;104.306;2022-07-29T02:50:44;95114.09;;;28.56;37.09
68141;BME280;54941;52.220;104.306;2022-07-29T02:53:23;95116.47;;;27.25;38.32
68141;BME280;54941;52.220;104.306;2022-07-29T02:56:05;95123.13;;;26.35;40.84
68141;BME280;54941;52.220;104.306;2022-07-29T02:58:34;95114.66;;;25.65;42.73
68141;BME280;54941;52.220;104.306;2022-07-29T03:01:10;95109.75;;;26.16;41.67
68141;BME280;54941;52.220;104.306;2022-07-29T03:03:38;95111.28;;;27.60;38.63
68141;BME280;54941;52.220;104.306;2022-07-29T03:06:05;95097.81;;;27.84;38.67
68141;BME280;54941;52.220;104.306;2022-07-29T03:08:34;95098.03;;;27.60;38.68
68141;BME280;54941;52.220;104.306;2022-07-29T03:11:01;95091.97;;;27.28;39.98
68141;BME280;54941;52.220;104.306;2022-07-29T03:13:29;95093.16;;;27.46;38.98
68141;BME280;54941;52.220;104.306;2022-07-29T03:15:58;95083.88;;;27.52;38.88
68141;BME280;54941;52.220;104.306;2022-07-29T03:18:25;95079.97;;;28.35;37.70
68141;BME280;54941;52.220;104.306;2022-07-29T03:20:52;95077.28;;;27.46;39.91
68141;BME280;54941;52.220;104.306;2022-07-29T03:23:19;95059.38;;;28.67;38.51
68141;BME280;54941;52.220;104.306;2022-07-29T03:25:46;95075.88;;;29.93;34.58
68141;BME280;54941;52.220;104.306;2022-07-29T03:28:12;95070.91;;;28.74;38.42
68141;BME280;54941;52.220;104.306;2022-07-29T03:30:38;95071.13;;;29.08;37.00
68141;BME280;54941;52.220;104.306;2022-07-29T03:33:04;95069.56;;;28.65;37.17
68141;BME280;54941;52.220;104.306;2022-07-29T03:35:30;95062.03;;;27.90;39.51
68141;BME280;54941;52.220;104.306;2022-07-29T03:37:57;95055.91;;;28.24;39.60
68141;BME280;54941;52.220;104.306;2022-07-29T03:40:39;95052.75;;;27.99;39.11
68141;BME280;54941;52.220;104.306;2022-07-29T03:43:09;95054.97;;;28.93;37.38
68141;BME280;54941;52.220;104.306;2022-07-29T03:45:38;95049.53;;;28.67;36.94
68141;BME280;54941;52.220;104.306;2022-07-29T03:48:08;95058.50;;;30.32;34.85
68141;BME280;54941;52.220;104.306;2022-07-29T03:50:36;95059.59;;;29.72;35.39
68141;BME280;54941;52.220;104.306;2022-07-29T03:53:02;95056.22;;;30.01;35.38
68141;BME280;54941;52.220;104.306;2022-07-29T03:55:32;95050.00;;;29.37;35.44
68141;BME280;54941;52.220;104.306;2022-07-29T03:58:02;95052.03;;;29.74;34.93
68141;BME280;54941;52.220;104.306;2022-07-29T04:00:28;95045.50;;;29.19;36.16
68141;BME280;54941;52.220;104.306;2022-07-29T04:02:56;95039.91;;;28.01;38.08
68141;BME280;54941;52.220;104.306;2022-07-29T04:05:23;95038.28;;;29.68;36.90
68141;BME280;54941;52.220;104.306;2022-07-29T04:07:49;95043.09;;;29.10;37.11
68141;BME280;54941;52.220;104.306;2022-07-29T04:10:16;95042.59;;;29.50;34.86
68141;BME280;54941;52.220;104.306;2022-07-29T04:12:42;95033.44;;;29.47;34.69
68141;BME280;54941;52.220;104.306;2022-07-29T04:15:09;95031.44;;;29.93;34.96
68141;BME280;54941;52.220;104.306;2022-07-29T04:17:35;95027.03;;;30.75;32.30
68141;BME280;54941;52.220;104.306;2022-07-29T04:20:01;95020.91;;;28.76;35.74
68141;BME280;54941;52.220;104.306;2022-07-29T04:22:27;95023.56;;;29.22;35.28
68141;BME280;54941;52.220;104.306;2022-07-29T04:24:54;95017.66;;;29.09;35.92
68141;BME280;54941;52.220;104.306;2022-07-29T04:27:20;95030.56;;;30.16;34.15
68141;BME280;54941;52.220;104.306;2022-07-29T04:29:46;95023.41;;;29.11;35.42
68141;BME280;54941;52.220;104.306;2022-07-29T04:32:13;95018.13;;;29.15;35.65
68141;BME280;54941;52.220;104.306;2022-07-29T04:34:39;95015.00;;;29.32;34.64
68141;BME280;54941;52.220;104.306;2022-07-29T04:37:05;95014.34;;;29.38;33.17
68141;BME280;54941;52.220;104.306;2022-07-29T04:39:31;95012.44;;;29.65;32.36
68141;BME280;54941;52.220;104.306;2022-07-29T04:41:57;95005.66;;;28.50;34.15
68141;BME280;54941;52.220;104.306;2022-07-29T04:44:23;95002.72;;;27.60;35.77
68141;BME280;54941;52.220;104.306;2022-07-29T04:46:49;94993.81;;;27.87;35.93
68141;BME280;54941;52.220;104.306;2022-07-29T04:49:15;94999.56;;;27.38;36.40
68141;BME280;54941;52.220;104.306;2022-07-29T04:51:42;94990.91;;;27.06;37.27
68141;BME280;54941;52.220;104.306;2022-07-29T04:54:08;95005.44;;;26.53;36.79
68141;BME280;54941;52.220;104.306;2022-07-29T04:56:34;94993.97;;;26.77;37.21
68141;BME280;54941;52.220;104.306;2022-07-29T04:59:00;94986.66;;;26.86;36.58
68141;BME280;54941;52.220;104.306;2022-07-29T05:01:26;94979.22;;;26.92;36.77
68141;BME280;54941;52.220;104.306;2022-07-29T05:03:52;94980.84;;;26.22;38.06
68141;BME280;54941;52.220;104.306;2022-07-29T05:06:18;94979.31;;;25.81;39.02
68141;BME280;54941;52.220;104.306;2022-07-29T05:08:44;94981.59;;;26.81;38.06
68141;BME280;54941;52.220;104.306;2022-07-29T05:11:11;94992.13;;;27.44;36.92
68141;BME280;54941;52.220;104.306;2022-07-29T05:13:37;94984.38;;;27.35;37.62
68141;BME280;54941;52.220;104.306;2022-07-29T05:16:03;94978.63;;;26.98;38.32
68141;BME280;54941;52.220;104.306;2022-07-29T05:18:29;94982.53;;;26.02;39.86
68141;BME280;54941;52.220;104.306;2022-07-29T05:20:55;94973.88;;;26.29;40.35
68141;BME280;54941;52.220;104.306;2022-07-29T05:23:21;94975.25;;;25.83;38.97
68141;BME280;54941;52.220;104.306;2022-07-29T05:25:48;94971.94;;;26.14;39.96
68141;BME280;54941;52.220;104.306;2022-07-29T05:28:14;94957.22;;;26.56;38.95
68141;BME280;54941;52.220;104.306;2022-07-29T05:30:40;94951.72;;;26.65;38.76
68141;BME280;54941;52.220;104.306;2022-07-29T05:33:06;94950.03;;;26.13;36.96
68141;BME280;54941;52.220;104.306;2022-07-29T05:35:32;94940.78;;;25.92;39.96
68141;BME280;54941;52.220;104.306;2022-07-29T05:37:58;94953.56;;;25.38;38.66
68141;BME280;54941;52.220;104.306;2022-07-29T05:40:24;94951.03;;;25.53;40.44
68141;BME280;54941;52.220;104.306;2022-07-29T05:42:50;94955.47;;;25.01;40.07
68141;BME280;54941;52.220;104.306;2022-07-29T05:45:16;94948.00;;;25.03;40.21
68141;BME280;54941;52.220;104.306;2022-07-29T05:47:42;94951.81;;;26.09;40.27
68141;BME280;54941;52.220;104.306;2022-07-29T05:50:09;94959.19;;;26.16;38.41
68141;BME280;54941;52.220;104.306;2022-07-29T05:52:35;94958.69;;;25.71;37.86
68141;BME280;54941;52.220;104.306;2022-07-29T05:55:01;94948.94;;;26.14;37.04
68141;BME280;54941;52.220;104.306;2022-07-29T05:57:29;94947.47;;;26.17;39.02
68141;BME280;54941;52.220;104.306;2022-07-29T05:59:55;94945.53;;;25.86;37.03
68141;BME280;54941;52.220;104.306;2022-07-29T06:02:21;94940.69;;;25.60;38.93
68141;BME280;54941;52.220;104.306;2022-07-29T06:04:47;94932.38;;;26.02;36.47
68141;BME280;54941;52.220;104.306;2022-07-29T06:07:13;94933.91;;;26.03;35.47
68141;BME280;54941;52.220;104.306;2022-07-29T06:09:40;94935.53;;;25.80;36.78
68141;BME280;54941;52.220;104.306;2022-07-29T06:12:06;94937.44;;;25.27;38.39
68141;BME280;54941;52.220;104.306;2022-07-29T06:14:32;94933.16;;;24.74;39.83
68141;BME280;54941;52.220;104.306;2022-07-29T06:16:58;94953.78;;;24.60;39.53
68141;BME280;54941;52.220;104.306;2022-07-29T06:19:24;94960.66;;;24.40;41.26
68141;BME280;54941;52.220;104.306;2022-07-29T06:21:50;94967.69;;;23.12;50.63
68141;BME280;54941;52.220;104.306;2022-07-29T06:24:16;94943.63;;;22.63;52.31
68141;BME280;54941;52.220;104.306;2022-07-29T06:26:43;94959.81;;;22.19;54.49
68141;BME280;54941;52.220;104.306;2022-07-29T06:29:11;94970.50;;;21.71;54.31
68141;BME280;54941;52.220;104.306;2022-07-29T06:31:38;94961.53;;;21.55;55.27
68141;BME280;54941;52.220;104.306;2022-07-29T06:34:04;94963.41;;;21.46;55.08
68141;BME280;54941;52.220;104.306;2022-07-29T06:36:33;94963.06;;;21.30;57.46
68141;BME280;54941;52.220;104.306;2022-07-29T06:38:59;94968.94;;;21.27;58.71
68141;BME280;54941;52.220;104.306;2022-07-29T06:41:25;94967.78;;;21.02;59.33
68141;BME280;54941;52.220;104.306;2022-07-29T06:43:52;94968.81;;;20.93;60.59
68141;BME280;54941;52.220;104.306;2022-07-29T06:46:19;94968.63;;;20.89;61.46
68141;BME280;54941;52.220;104.306;2022-07-29T06:48:45;94961.19;;;20.65;63.34
68141;BME280;54941;52.220;104.306;2022-07-29T06:51:12;94964.41;;;20.71;62.45
68141;BME280;54941;52.220;104.306;2022-07-29T06:53:38;94963.38;;;20.80;61.79
68141;BME280;54941;52.220;104.306;2022-07-29T06:56:05;94954.88;;;20.75;63.72
68141;BME280;54941;52.220;104.306;2022-07-29T06:58:32;94962.16;;;20.86;64.34
68141;BME280;54941;52.220;104.306;2022-07-29T07:01:00;94953.81;;;20.76;66.00
68141;BME280;54941;52.220;104.306;2022-07-29T07:03:27;94953.81;;;20.84;63.97
68141;BME280;54941;52.220;104.306;2022-07-29T07:05:54;94943.09;;;21.03;63.48
68141;BME280;54941;52.220;104.306;2022-07-29T07:08:20;94939.41;;;21.04;63.84
68141;BME280;54941;52.220;104.306;2022-07-29T07:10:47;94935.75;;;21.40;63.66
68141;BME280;54941;52.220;104.306;2022-07-29T07:13:13;94929.16;;;21.59;62.51
68141;BME280;54941;52.220;104.306;2022-07-29T07:15:41;94928.38;;;21.67;61.45
68141;BME280;54941;52.220;104.306;2022-07-29T07:18:07;94921.44;;;21.97;61.09
68141;BME280;54941;52.220;104.306;2022-07-29T07:20:34;94925.41;;;22.03;61.69
68141;BME280;54941;52.220;104.306;2022-07-29T07:23:00;94916.41;;;22.30;59.47
68141;BME280;54941;52.220;104.306;2022-07-29T07:25:26;94907.28;;;22.65;58.77
68141;BME280;54941;52.220;104.306;2022-07-29T07:27:53;94911.19;;;22.68;57.58
68141;BME280;54941;52.220;104.306;2022-07-29T07:30:19;94911.78;;;22.73;58.41
68141;BME280;54941;52.220;104.306;2022-07-29T07:32:45;94919.63;;;22.82;56.86
68141;BME280;54941;52.220;104.306;2022-07-29T07:35:11;94914.09;;;22.75;55.18
68141;BME280;54941;52.220;104.306;2022-07-29T07:37:38;94921.94;;;22.84;54.57
68141;BME280;54941;52.220;104.306;2022-07-29T07:40:05;94928.84;;;22.88;56.34
68141;BME280;54941;52.220;104.306;2022-07-29T07:42:31;94923.72;;;22.92;53.79
68141;BME280;54941;52.220;104.306;2022-07-29T07:44:57;94934.03;;;23.05;52.85
68141;BME280;54941;52.220;104.306;2022-07-29T07:47:23;94929.13;;;22.95;53.31
68141;BME280;54941;52.220;104.306;2022-07-29T07:49:50;94923.19;;;23.07;53.88
68141;BME280;54941;52.220;104.306;2022-07-29T07:52:17;94924.00;;;23.28;52.85
68141;BME280;54941;52.220;104.306;2022-07-29T07:54:44;94926.16;;;23.26;54.57
68141;BME280;54941;52.220;104.306;2022-07-29T07:57:11;94928.69;;;23.14;55.26
68141;BME280;54941;52.220;104.306;2022-07-29T07:59:38;94933.34;;;22.88;54.33
68141;BME280;54941;52.220;104.306;2022-07-29T08:02:05;94940.28;;;22.92;53.84
68141;BME280;54941;52.220;104.306;2022-07-29T08:04:32;94940.88;;;22.98;55.91
68141;BME280;54941;52.220;104.306;2022-07-29T08:06:59;94944.28;;;23.19;52.95
68141;BME280;54941;52.220;104.306;2022-07-29T08:09:26;94946.41;;;23.25;52.89
68141;BME280;54941;52.220;104.306;2022-07-29T08:11:52;94955.34;;;23.33;51.82
68141;BME280;54941;52.220;104.306;2022-07-29T08:14:19;94951.28;;;23.36;50.53
68141;BME280;54941;52.220;104.306;2022-07-29T08:16:45;94948.91;;;23.51;51.97
68141;BME280;54941;52.220;104.306;2022-07-29T08:19:11;94945.47;;;23.92;52.11
68141;BME280;54941;52.220;104.306;2022-07-29T08:21:37;94950.00;;;24.04;52.40
68141;BME280;54941;52.220;104.306;2022-07-29T08:24:04;94952.63;;;24.04;52.71
68141;BME280;54941;52.220;104.306;2022-07-29T08:26:30;94962.47;;;23.33;53.76
68141;BME280;54941;52.220;104.306;2022-07-29T08:28:57;94948.91;;;23.51;52.18
68141;BME280;54941;52.220;104.306;2022-07-29T08:31:23;94960.06;;;23.69;51.47
68141;BME280;54941;52.220;104.306;2022-07-29T08:33:49;94957.75;;;24.21;50.31
68141;BME280;54941;52.220;104.306;2022-07-29T08:36:15;94959.97;;;24.19;49.23
68141;BME280;54941;52.220;104.306;2022-07-29T08:38:41;94955.59;;;24.02;50.12
68141;BME280;54941;52.220;104.306;2022-07-29T08:41:07;94945.50;;;24.04;48.93
68141;BME280;54941;52.220;104.306;2022-07-29T08:43:33;94957.38;;;24.10;48.78
68141;BME280;54941;52.220;104.306;2022-07-29T08:46:00;94962.13;;;23.63;49.04
68141;BME280;54941;52.220;104.306;2022-07-29T08:48:26;94954.81;;;23.48;49.40
68141;BME280;54941;52.220;104.306;2022-07-29T08:50:55;94947.78;;;23.32;49.60
68141;BME280;54941;52.220;104.306;2022-07-29T08:53:24;94942.03;;;23.59;49.05
68141;BME280;54941;52.220;104.306;2022-07-29T08:55:50;94942.78;;;23.39;48.75
68141;BME280;54941;52.220;104.306;2022-07-29T08:58:17;94936.09;;;22.91;48.82
68141;BME280;54941;52.220;104.306;2022-07-29T09:00:55;94935.38;;;22.82;48.40
68141;BME280;54941;52.220;104.306;2022-07-29T09:03:29;94927.78;;;23.10;48.35
68141;BME280;54941;52.220;104.306;2022-07-29T09:05:58;94922.81;;;23.17;49.38
68141;BME280;54941;52.220;104.306;2022-07-29T09:08:23;94922.88;;;23.29;50.16
68141;BME280;54941;52.220;104.306;2022-07-29T09:10:50;94922.06;;;23.37;48.45
68141;BME280;54941;52.220;104.306;2022-07-29T09:13:17;94920.91;;;23.26;48.88
68141;BME280;54941;52.220;104.306;2022-07-29T09:15:43;94912.75;;;22.98;50.45
68141;BME280;54941;52.220;104.306;2022-07-29T09:18:10;94917.56;;;22.88;49.48
68141;BME280;54941;52.220;104.306;2022-07-29T09:20:36;94915.28;;;22.86;50.68
68141;BME280;54941;52.220;104.306;2022-07-29T09:23:07;94914.47;;;23.15;51.17
68141;BME280;54941;52.220;104.306;2022-07-29T09:25:34;94912.09;;;23.22;50.84
68141;BME280;54941;52.220;104.306;2022-07-29T09:28:12;94921.09;;;22.92;52.01
68141;BME280;54941;52.220;104.306;2022-07-29T09:30:58;94916.72;;;22.66;50.98
68141;BME280;54941;52.220;104.306;2022-07-29T09:33:31;94920.13;;;22.75;50.51
68141;BME280;54941;52.220;104.306;2022-07-29T09:36:08;94920.56;;;23.07;51.11
68141;BME280;54941;52.220;104.306;2022-07-29T09:38:35;94917.53;;;22.58;51.80
68141;BME280;54941;52.220;104.306;2022-07-29T09:41:03;94916.38;;;22.39;52.44
68141;BME280;54941;52.220;104.306;2022-07-29T09:43:30;94923.53;;;22.76;51.46
68141;BME280;54941;52.220;104.306;2022-07-29T09:45:56;94921.84;;;22.71;51.31
68141;BME280;54941;52.220;104.306;2022-07-29T09:48:35;94921.38;;;22.69;51.00
68141;BME280;54941;52.220;104.306;2022-07-29T09:51:01;94915.03;;;22.62;51.39
68141;BME280;54941;52.220;104.306;2022-07-29T09:53:35;94911.53;;;22.58;52.08
68141;BME280;54941;52.220;104.306;2022-07-29T09:56:02;94913.53;;;22.52;52.51
68141;BME280;54941;52.220;104.306;2022-07-29T09:58:28;94917.72;;;22.53;52.10
68141;BME280;54941;52.220;104.306;2022-07-29T10:00:55;94918.56;;;22.66;53.61
68141;BME280;54941;52.220;104.306;2022-07-29T10:03:22;94925.78;;;22.40;51.91
68141;BME280;54941;52.220;104.306;2022-07-29T10:06:09;94923.56;;;22.12;53.70
68141;BME280;54941;52.220;104.306;2022-07-29T10:08:36;94929.59;;;21.70;54.15
68141;BME280;54941;52.220;104.306;2022-07-29T10:11:14;94927.44;;;21.63;54.93
68141;BME280;54941;52.220;104.306;2022-07-29T10:13:41;94929.16;;;21.33;55.78
68141;BME280;54941;52.220;104.306;2022-07-29T10:16:09;94935.47;;;21.24;56.60
68141;BME280;54941;52.220;104.306;2022-07-29T10:18:38;94939.91;;;21.15;57.11
68141;BME280;54941;52.220;104.306;2022-07-29T10:21:04;94942.19;;;21.08;56.54
68141;BME280;54941;52.220;104.306;2022-07-29T10:23:31;94948.81;;;21.05;56.82
68141;BME280;54941;52.220;104.306;2022-07-29T10:25:57;94945.03;;;20.72;58.69
68141;BME280;54941;52.220;104.306;2022-07-29T10:28:23;94946.03;;;20.62;58.88
68141;BME280;54941;52.220;104.306;2022-07-29T10:30:51;94939.56;;;20.60;59.43
68141;BME280;54941;52.220;104.306;2022-07-29T10:33:44;94944.53;;;20.61;59.54
68141;BME280;54941;52.220;104.306;2022-07-29T10:44:44;94959.13;;;20.54;60.01
68141;BME280;54941;52.220;104.306;2022-07-29T10:47:39;94956.63;;;20.49;60.65
68141;BME280;54941;52.220;104.306;2022-07-29T10:50:06;94954.63;;;20.46;60.31
68141;BME280;54941;52.220;104.306;2022-07-29T10:52:53;94962.13;;;20.38;61.23
68141;BME280;54941;52.220;104.306;2022-07-29T10:55:36;94955.22;;;20.43;60.86
68141;BME280;54941;52.220;104.306;2022-07-29T11:00:43;94945.09;;;20.27;62.82
68141;BME280;54941;52.220;104.306;2022-07-29T11:06:08;94944.25;;;20.32;62.67
68141;BME280;54941;52.220;104.306;2022-07-29T11:08:36;94943.75;;;20.30;62.18
68141;BME280;54941;52.220;104.306;2022-07-29T11:13:47;94936.22;;;20.28;61.32
68141;BME280;54941;52.220;104.306;2022-07-29T11:16:14;94934.47;;;20.24;60.94
68141;BME280;54941;52.220;104.306;2022-07-29T11:21:39;94938.16;;;20.23;60.07
68141;BME280;54941;52.220;104.306;2022-07-29T11:24:13;94943.56;;;20.26;60.82
68141;BME280;54941;52.220;104.306;2022-07-29T11:26:39;94946.69;;;20.28;60.96
68141;BME280;54941;52.220;104.306;2022-07-29T11:29:20;94947.22;;;20.17;60.47
68141;BME280;54941;52.220;104.306;2022-07-29T11:31:49;94947.56;;;20.24;59.63
68141;BME280;54941;52.220;104.306;2022-07-29T11:34:26;94947.06;;;20.22;61.10
68141;BME280;54941;52.220;104.306;2022-07-29T11:39:37;94953.75;;;20.28;61.74
68141;BME280;54941;52.220;104.306;2022-07-29T11:44:59;94957.97;;;20.15;60.96
68141;BME280;54941;52.220;104.306;2022-07-29T11:47:29;94964.09;;;20.11;61.43
68141;BME280;54941;52.220;104.306;2022-07-29T11:49:57;94959.41;;;19.99;61.13
68141;BME280;54941;52.220;104.306;2022-07-29T11:52:32;94951.69;;;19.94;61.61
68141;BME280;54941;52.220;104.306;2022-07-29T11:55:01;94951.03;;;19.88;61.22
68141;BME280;54941;52.220;104.306;2022-07-29T11:57:29;94952.81;;;19.79;61.08
68141;BME280;54941;52.220;104.306;2022-07-29T11:59:57;94956.03;;;19.76;61.12
68141;BME280;54941;52.220;104.306;2022-07-29T12:02:24;94944.97;;;19.79;60.84
68141;BME280;54941;52.220;104.306;2022-07-29T12:04:56;94949.44;;;19.79;60.79
68141;BME280;54941;52.220;104.306;2022-07-29T12:07:30;94944.31;;;19.74;62.27
68141;BME280;54941;52.220;104.306;2022-07-29T12:09:57;94945.41;;;19.73;62.07
68141;BME280;54941;52.220;104.306;2022-07-29T12:12:24;94946.75;;;19.70;60.72
68141;BME280;54941;52.220;104.306;2022-07-29T12:14:53;94938.59;;;19.72;60.48
68141;BME280;54941;52.220;104.306;2022-07-29T12:17:32;94942.97;;;19.76;59.76
68141;BME280;54941;52.220;104.306;2022-07-29T12:20:01;94933.19;;;19.68;60.36
68141;BME280;54941;52.220;104.306;2022-07-29T12:22:37;94931.75;;;19.62;61.07
68141;BME280;54941;52.220;104.306;2022-07-29T12:25:05;94943.00;;;19.63;60.39
68141;BME280;54941;52.220;104.306;2022-07-29T12:27:32;94942.34;;;19.57;60.48
68141;BME280;54941;52.220;104.306;2022-07-29T12:30:04;94943.50;;;19.51;61.30
68141;BME280;54941;52.220;104.306;2022-07-29T12:32:36;94939.78;;;19.43;61.83
68141;BME280;54941;52.220;104.306;2022-07-29T12:35:05;94936.28;;;19.34;62.64
68141;BME280;54941;52.220;104.306;2022-07-29T12:37:33;94937.59;;;19.10;68.45
68141;BME280;54941;52.220;104.306;2022-07-29T12:40:00;94940.53;;;18.67;70.72
68141;BME280;54941;52.220;104.306;2022-07-29T12:42:26;94937.13;;;18.39;71.52
68141;BME280;54941;52.220;104.306;2022-07-29T12:44:53;94937.72;;;18.04;74.42
68141;BME280;54941;52.220;104.306;2022-07-29T12:47:20;94949.19;;;17.71;76.82
68141;BME280;54941;52.220;104.306;2022-07-29T12:49:47;94948.13;;;17.53;78.66
68141;BME280;54941;52.220;104.306;2022-07-29T12:52:30;94945.81;;;17.33;79.62
68141;BME280;54941;52.220;104.306;2022-07-29T12:54:57;94949.69;;;17.17;80.78
68141;BME280;54941;52.220;104.306;2022-07-29T12:57:23;94956.34;;;17.23;80.19
68141;BME280;54941;52.220;104.306;2022-07-29T13:00:16;94956.72;;;17.16;80.10
68141;BME280;54941;52.220;104.306;2022-07-29T13:05:43;94959.44;;;17.06;78.98
68141;BME280;54941;52.220;104.306;2022-07-29T13:08:14;94945.25;;;17.17;76.57
68141;BME280;54941;52.220;104.306;2022-07-29T13:10:41;94944.13;;;17.23;74.79
68141;BME280;54941;52.220;104.306;2022-07-29T13:13:18;94945.63;;;17.29;74.77
68141;BME280;54941;52.220;104.306;2022-07-29T13:15:45;94945.59;;;17.11;76.16
68141;BME280;54941;52.220;104.306;2022-07-29T13:18:34;94955.56;;;16.85;79.37
68141;BME280;54941;52.220;104.306;2022-07-29T13:21:11;94961.31;;;16.53;81.53
68141;BME280;54941;52.220;104.306;2022-07-29T13:23:38;94969.72;;;16.21;82.54
68141;BME280;54941;52.220;104.306;2022-07-29T13:26:08;94961.44;;;16.14;82.69
68141;BME280;54941;52.220;104.306;2022-07-29T13:28:35;94960.47;;;16.05;82.62
68141;BME280;54941;52.220;104.306;2022-07-29T13:31:01;94969.88;;;16.01;82.41